Aérodrome :
LOGIN :

S'inscrire | Disclaimer

   EN    FR    IT 

 










Légende :    VFR   VFR Marginal   IFR   IFR Intensif   IFR Très Intensif
Visi : 
Plafond : 
>= 8 km
>= 3000ft
5 à 8 km
1000 à 3000 ft
1500m à 5 km
500 à 1000 ft
800 à 1500m
200 à 500 ft
< 800m
< 200 ft
Symboles :   Orages  Brouillard  Fortes neiges  Fortes précipitations  Vent > 20 kt
SIGMETs :   Divers  Orages  Givrage  Turbulence  Onde Orograph.  Cendres Volcan.







- Altitude de l'aérodrome : 1585 ft
- Code IATA : SIR


LSGS - Sion

DERNIER METAR :
  • 240920Z 25004KT 200V290 9999 FEW070 SCT300 22/10 Q1022

METARs EXPIRÉS :
  • 240850Z 22003KT 140V280 9999 FEW070 SCT300 21/09 Q1022
  • 240820Z VRB03KT 9999 FEW070 SCT300 20/09 Q1023
  • 240750Z VRB03KT 9999 FEW080 SCT300 20/10 Q1023
  • 240720Z 07005KT 040V110 9999 FEW080 SCT300 18/09 Q1023
  • 240650Z VRB03KT CAVOK 17/09 Q1023

TAF TAF LSGS
Valide du 24 à 09h jusqu'au 24 à 18h UTC


240825Z 2409/2418 VRB03KT CAVOK
BECMG 2411/2413 25015KT
Pas de NOTAMs connus pour ce terrain.



MET'MAP, la Météo Aéronautique d'un coup d'oeil ! - Copyright ORBIFLY Décembre 2007 - Disclaimer

ORBIFLY MET'MAP TEAM :

Programmation & Développement : Alexandra Zaïnal
Conception & Développement : Baudouin d'Aumeries
Co-Programmation & Développement : Marc-Olivier Méhu
Soutien technique & logistique : Manuel Goepfert

Contact : metmap@orbifly.com




SOURCES & CREDITS :

   NOAA